Time;durP1;ratioP1;P1;durP2;ratioP2;P2;SDS_P1;SDS_P2;PMS_P1;PMS_P2;Temp;Humidity;BMP_temperature;BMP_pressure;BME280_temperature;BME280_humidity;BME280_pressure;Samples;Min_cycle;Max_cycle;Signal;HPM_P1;HPM_P2
2021/06/01 17:23:33;;;;;;;0.40;0.40;;;;;;;23.46;25.46;96599.41;88151;206;64004;-58
2021/06/01 17:35:34;;;;;;;0.30;0.30;;;;;;;23.09;24.60;96596.69;29417;277;63004;-58
2021/06/01 17:36:10;;;;;;;0.30;0.30;;;;;;;23.06;25.10;96594.69;29394;204;64008;-58
2021/06/01 17:36:48;;;;;;;0.30;0.30;;;;;;;23.09;25.29;96593.13;29395;291;63004;-54
2021/06/01 17:37:22;;;;;;;0.30;0.30;;;;;;;23.08;24.96;96597.88;29395;253;63009;-58
2021/06/01 17:37:54;;;;;;;0.30;0.30;;;;;;;23.12;25.29;96593.19;29394;219;64005;-60
2021/06/01 17:38:33;;;;;;;0.30;0.30;;;;;;;23.05;24.78;96596.66;29395;218;63009;-57
2021/06/01 17:39:06;;;;;;;0.30;0.30;;;;;;;23.01;25.09;96593.06;29395;286;63005;-57
2021/06/01 17:39:38;;;;;;;0.30;0.30;;;;;;;23.08;25.00;96597.88;29395;205;63009;-58
2021/06/01 17:40:14;;;;;;;5.07;4.87;;;;;;;23.11;25.64;96591.59;29395;221;63005;-63
2021/06/01 17:40:52;;;;;;;0.30;0.30;;;;;;;23.10;25.41;96590.00;29395;212;63016;-64
2021/06/01 17:41:32;;;;;;;0.30;0.30;;;;;;;22.97;26.26;96597.75;29395;247;63004;-66
2021/06/01 17:42:07;;;;;;;0.30;0.30;;;;;;;22.99;25.98;96594.63;29417;297;63009;-60
2021/06/01 17:42:53;;;;;;;0.30;0.30;;;;;;;22.98;25.46;96590.25;29394;287;64004;-60
2021/06/01 17:43:35;;;;;;;0.30;0.30;;;;;;;23.08;25.81;96592.34;29395;221;63009;-63
2021/06/01 17:44:09;;;;;;;0.30;0.30;;;;;;;23.13;25.42;96594.75;29395;245;63004;-63
2021/06/01 17:44:43;;;;;;;0.30;0.30;;;;;;;23.12;25.79;96598.72;29395;202;63009;-62
2021/06/01 17:45:18;;;;;;;0.30;0.30;;;;;;;23.12;25.72;96597.91;29395;197;63005;-60
2021/06/01 17:45:54;;;;;;;0.30;0.30;;;;;;;23.12;26.06;96593.19;29395;208;63009;-60
2021/06/01 17:46:28;;;;;;;0.30;0.30;;;;;;;23.13;25.60;96594.75;29395;228;63005;-60
2021/06/01 17:47:03;;;;;;;0.30;0.30;;;;;;;23.13;25.21;96599.50;29395;270;63009;-63
2021/06/01 17:47:50;;;;;;;0.30;0.30;;;;;;;23.08;25.01;96594.31;29395;202;63005;-63
2021/06/01 17:48:31;;;;;;;0.30;0.30;;;;;;;23.05;25.34;96598.62;29394;235;64009;-61
2021/06/01 17:49:07;;;;;;;0.30;0.30;;;;;;;23.05;25.48;96588.38;29417;228;63004;-67
2021/06/01 17:49:40;;;;;;;0.30;0.30;;;;;;;23.06;26.10;96600.22;29395;299;63009;-64
2021/06/01 17:50:24;;;;;;;0.30;0.30;;;;;;;23.06;26.15;96594.69;29395;210;63000;-57
2021/06/01 17:50:56;;;;;;;0.30;0.30;;;;;;;23.04;26.92;96595.06;29395;217;63009;-62
2021/06/01 17:51:33;;;;;;;0.30;0.30;;;;;;;23.10;26.81;96594.72;29395;197;63004;-69
2021/06/01 17:52:06;;;;;;;0.30;0.30;;;;;;;23.05;27.79;96599.44;29395;210;63009;-64
2021/06/01 17:52:37;;;;;;;0.30;0.30;;;;;;;23.02;27.96;96597.41;29395;223;63008;-67
2021/06/01 17:53:08;;;;;;;0.30;0.30;;;;;;;22.96;28.17;96598.94;29394;265;64009;-69
2021/06/01 17:54:03;;;;;;;0.30;0.30;;;;;;;23.00;26.63;96597.00;29395;220;63005;-68
2021/06/01 17:54:35;;;;;;;0.40;0.40;;;;;;;23.11;25.97;96596.31;29395;220;63009;-67
2021/06/01 17:55:08;;;;;;;0.30;0.30;;;;;;;23.17;26.36;96589.25;29395;204;63005;-64
2021/06/01 17:55:40;;;;;;;0.30;0.30;;;;;;;23.23;25.55;96582.97;29395;245;63009;-65
2021/06/01 17:56:18;;;;;;;0.30;0.30;;;;;;;23.19;25.18;96587.72;29395;240;63004;-67
2021/06/01 17:56:50;;;;;;;0.30;0.30;;;;;;;23.18;25.34;96586.13;29395;218;63009;-66
2021/06/01 17:57:42;;;;;;;0.30;0.30;;;;;;;23.12;25.35;96587.63;29395;256;63004;-69
2021/06/01 17:58:14;;;;;;;0.30;0.30;;;;;;;23.13;25.80;96589.22;29394;202;64008;-68
2021/06/01 17:58:45;;;;;;;0.30;0.30;;;;;;;23.13;25.72;96582.91;29395;221;63004;-69
2021/06/01 17:59:19;;;;;;;0.30;0.30;;;;;;;23.13;25.94;96592.00;29395;198;63008;-59
2021/06/01 17:59:52;;;;;;;0.30;0.30;;;;;;;23.13;25.96;96586.47;29395;213;63005;-58
2021/06/01 18:00:27;;;;;;;0.30;0.30;;;;;;;23.19;26.19;96592.44;29395;230;63009;-67
2021/06/01 18:00:59;;;;;;;1.75;1.25;;;;;;;23.20;26.55;96586.53;29395;254;63005;-66
2021/06/01 18:01:31;;;;;;;0.30;0.30;;;;;;;23.22;26.33;96592.44;29395;255;63009;-70
2021/06/01 18:02:04;;;;;;;0.30;0.30;;;;;;;23.23;26.33;96596.00;29395;288;63005;-68
2021/06/01 18:02:38;;;;;;;0.30;0.30;;;;;;;23.24;26.27;96590.09;29395;206;63009;-67
2021/06/01 18:03:11;;;;;;;0.30;0.30;;;;;;;23.26;26.98;96586.94;29394;290;64004;-68
2021/06/01 18:04:35;;;;;;;0.30;0.30;;;;;;;23.23;26.37;96591.28;29395;218;63004;-65
2021/06/01 18:05:08;;;;;;;0.30;0.30;;;;;;;23.24;25.77;96589.31;29395;217;63009;-64
2021/06/01 18:05:43;;;;;;;0.30;0.30;;;;;;;23.24;25.76;96583.78;29395;198;63004;-69
2021/06/01 18:06:15;;;;;;;0.30;0.30;;;;;;;23.22;25.82;96588.88;29395;279;63009;-59
2021/06/01 18:06:56;;;;;;;0.30;0.30;;;;;;;23.16;25.64;96596.78;29395;330;63005;-66
2021/06/01 18:07:37;;;;;;;0.30;0.30;;;;;;;23.11;25.48;96591.59;29395;293;63009;-61
2021/06/01 18:11:01;;;;;;;0.30;0.30;;;;;;;22.77;26.76;96593.59;29400;301;63009;-61
2021/06/01 18:12:05;;;;;;;0.70;0.70;;;;;;;22.70;26.40;96588.78;29395;205;63009;-66
2021/06/01 18:37:35;;;;;;;0.30;0.30;;;;;;;20.24;31.19;96601.78;29417;206;63005;-67
2021/06/01 18:40:55;;;;;;;0.35;0.35;;;;;;;20.11;33.40;96616.84;29395;236;63009;-69
2021/06/01 18:43:15;;;;;;;0.40;0.40;;;;;;;19.93;33.08;96606.25;29395;242;63004;-65
2021/06/01 19:21:26;;;;;;;0.40;0.40;;;;;;;18.87;34.37;96625.66;29395;243;63004;-61
2021/06/01 19:24:04;;;;;;;0.40;0.40;;;;;;;18.60;35.56;96638.28;29416;254;64005;-61
2021/06/01 19:24:26;;;;;;;0.40;0.40;;;;;;;18.56;35.51;96631.87;29417;199;63009;-61
2021/06/01 19:25:06;;;;;;;0.40;0.40;;;;;;;18.53;35.73;96635.31;29395;208;63009;-62
2021/06/01 19:27:00;;;;;;;0.40;0.40;;;;;;;18.47;35.38;96634.75;29394;227;64004;-61
2021/06/01 19:28:48;;;;;;;0.40;0.40;;;;;;;18.40;35.64;96635.34;29395;366;63015;-62
2021/06/01 19:49:57;;;;;;;0.40;0.40;;;;;;;17.94;36.82;96655.97;29417;206;63004;-61
2021/06/01 19:50:37;;;;;;;0.40;0.40;;;;;;;17.93;36.56;96664.56;29395;306;63008;-61
2021/06/01 19:51:12;;;;;;;0.40;0.40;;;;;;;17.92;36.70;96658.28;29395;199;63005;-61
2021/06/01 19:51:49;;;;;;;0.40;0.40;;;;;;;17.91;37.15;96659.41;29395;227;63009;-61
2021/06/01 19:52:22;;;;;;;0.40;0.40;;;;;;;17.90;36.98;96660.56;29394;232;64005;-60
2021/06/01 19:52:55;;;;;;;0.40;0.40;;;;;;;17.89;36.92;96658.97;29395;207;63009;-64
2021/06/01 19:53:26;;;;;;;0.40;0.40;;;;;;;17.88;36.81;96651.06;29394;197;64005;-62
2021/06/01 19:53:58;;;;;;;0.40;0.40;;;;;;;17.85;37.53;96658.03;29395;219;63009;-62
2021/06/01 19:54:31;;;;;;;0.30;0.30;;;;;;;17.82;37.33;96656.00;29395;219;63005;-60
2021/06/01 19:55:04;;;;;;;0.40;0.40;;;;;;;17.80;37.46;96655.53;29395;226;63009;-61
2021/06/01 19:55:36;;;;;;;0.40;0.40;;;;;;;17.78;37.32;96660.56;29395;228;63004;-60
2021/06/01 19:56:08;;;;;;;0.40;0.40;;;;;;;17.77;37.63;96660.91;29395;238;63004;-60
2021/06/01 19:56:41;;;;;;;0.40;0.40;;;;;;;17.74;37.73;96656.91;29395;320;63004;-60
2021/06/01 19:57:13;;;;;;;0.40;0.40;;;;;;;17.75;38.17;96664.00;29396;240;63009;-64
2021/06/01 19:57:44;;;;;;;0.40;0.40;;;;;;;17.71;37.88;96663.88;29396;279;63004;-61
2021/06/01 19:58:16;;;;;;;0.40;0.40;;;;;;;17.70;37.77;96667.78;29396;222;63008;-61
2021/06/01 19:58:48;;;;;;;0.40;0.40;;;;;;;17.71;37.45;96668.56;29395;264;64005;-62
2021/06/01 19:59:23;;;;;;;0.40;0.40;;;;;;;17.69;37.33;96670.84;29396;216;63009;-60
2021/06/01 19:59:56;;;;;;;0.30;0.30;;;;;;;17.68;37.10;96663.78;29396;198;63005;-63
2021/06/01 20:00:30;;;;;;;0.40;0.40;;;;;;;17.68;37.16;96669.25;29396;224;63009;-61
2021/06/01 20:01:06;;;;;;;0.40;0.40;;;;;;;17.67;37.16;96667.69;29396;212;63000;-60
2021/06/01 20:01:38;;;;;;;0.40;0.40;;;;;;;17.65;38.44;96667.22;29396;323;63009;-60
2021/06/01 20:02:17;;;;;;;0.40;0.40;;;;;;;17.63;37.79;96672.22;29396;297;63005;-61
2021/06/01 20:02:49;;;;;;;0.40;0.40;;;;;;;17.62;37.87;96671.44;29396;212;63009;-61
2021/06/01 20:03:21;;;;;;;0.40;0.40;;;;;;;17.62;37.42;96667.88;29396;230;63008;-60
2021/06/01 20:03:53;;;;;;;0.40;0.40;;;;;;;17.61;37.98;96669.03;29395;208;64009;-62
2021/06/01 20:04:28;;;;;;;0.40;0.40;;;;;;;17.61;38.00;96669.03;29396;237;63004;-61
2021/06/01 20:05:12;;;;;;;0.40;0.40;;;;;;;17.58;37.83;96665.03;29396;228;63023;-60
2021/06/01 20:05:44;;;;;;;0.40;0.40;;;;;;;17.57;38.08;96670.84;29395;201;64004;-61
2021/06/01 20:06:15;;;;;;;0.40;0.40;;;;;;;17.55;37.74;96667.66;29396;259;63009;-61
2021/06/01 20:06:48;;;;;;;0.40;0.40;;;;;;;17.54;38.21;96674.28;29395;236;64005;-61
2021/06/01 20:07:22;;;;;;;0.40;0.40;;;;;;;17.54;38.31;96679.75;29396;224;63009;-61
2021/06/01 20:07:54;;;;;;;0.40;0.40;;;;;;;17.54;38.28;96679.75;29396;352;63005;-62
2021/06/01 20:08:26;;;;;;;0.40;0.40;;;;;;;17.57;37.47;96673.59;29396;274;63009;-62
2021/06/01 20:08:58;;;;;;;0.40;0.40;;;;;;;17.58;37.42;96670.50;29395;250;64005;-62
2021/06/01 20:09:31;;;;;;;0.40;0.40;;;;;;;17.59;37.30;96671.31;29396;204;63009;-60
2021/06/01 20:10:04;;;;;;;0.40;0.40;;;;;;;17.59;36.99;96672.09;29396;238;63004;-61
2021/06/01 20:10:37;;;;;;;0.40;0.40;;;;;;;17.60;37.27;96678.41;29396;237;63009;-61
2021/06/01 20:11:09;;;;;;;0.40;0.40;;;;;;;17.59;37.53;96665.81;29396;198;63004;-62
2021/06/01 20:11:42;;;;;;;0.40;0.40;;;;;;;17.60;37.47;96670.16;29396;214;63009;-60
2021/06/01 20:12:14;;;;;;;0.40;0.40;;;;;;;17.60;38.53;96681.94;29396;218;63004;-61
2021/06/01 20:12:46;;;;;;;0.40;0.40;;;;;;;17.59;37.58;96677.59;29396;226;63008;-61
2021/06/01 20:13:18;;;;;;;0.40;0.40;;;;;;;17.56;39.03;96688.44;29396;218;63004;-61
2021/06/01 20:13:50;;;;;;;0.40;0.40;;;;;;;17.55;38.72;96670.41;29396;215;63009;-61
2021/06/01 20:14:22;;;;;;;0.40;0.40;;;;;;;17.55;38.20;96681.38;29395;229;64005;-60
2021/06/01 20:14:55;;;;;;;0.40;0.40;;;;;;;17.55;38.04;96678.63;29396;340;63009;-61
2021/06/01 20:15:32;;;;;;;0.40;0.40;;;;;;;17.55;37.71;96681.38;29396;213;63000;-60
2021/06/01 20:16:04;;;;;;;0.40;0.40;;;;;;;17.56;37.72;96672.00;29396;216;63005;-60
2021/06/01 20:16:43;;;;;;;0.40;0.40;;;;;;;17.56;37.45;96672.00;29396;216;63000;-61
2021/06/01 20:17:33;;;;;;;0.40;0.40;;;;;;;17.57;37.45;96676.34;29396;197;63009;-62
2021/06/01 20:18:06;;;;;;;0.40;0.40;;;;;;;17.58;37.35;96676.00;29395;210;64004;-60
2021/06/01 20:18:40;;;;;;;0.40;0.40;;;;;;;17.59;37.38;96676.78;29396;253;63004;-61
2021/06/01 20:19:17;;;;;;;0.40;0.40;;;;;;;17.59;37.35;96671.31;29395;279;64004;-61
2021/06/01 20:19:53;;;;;;;0.40;0.40;;;;;;;17.59;37.11;96669.38;29396;202;63008;-61
2021/06/01 20:20:25;;;;;;;0.40;0.40;;;;;;;17.59;37.13;96672.09;29396;208;63004;-61
2021/06/01 20:20:57;;;;;;;0.40;0.40;;;;;;;17.63;37.26;96667.53;29396;225;63020;-61
2021/06/01 20:21:33;;;;;;;0.40;0.40;;;;;;;17.62;37.55;96676.13;29396;289;63005;-63
2021/06/01 20:22:05;;;;;;;0.40;0.40;;;;;;;17.61;37.45;96669.03;29396;209;63009;-60
2021/06/01 20:22:43;;;;;;;0.40;0.40;;;;;;;17.58;37.37;96669.72;29396;314;63005;-61
2021/06/01 20:23:17;;;;;;;0.30;0.30;;;;;;;17.58;37.52;96675.19;29396;334;63009;-63
2021/06/01 20:23:49;;;;;;;0.40;0.40;;;;;;;17.57;37.25;96668.91;29395;202;64005;-64
2021/06/01 20:24:21;;;;;;;0.40;0.40;;;;;;;17.58;37.61;96673.25;29395;222;64009;-66
2021/06/01 20:24:59;;;;;;;0.40;0.40;;;;;;;17.58;37.39;96675.19;29395;245;64004;-65
2021/06/01 20:25:31;;;;;;;0.40;0.40;;;;;;;17.59;37.49;96671.31;29396;202;63009;-64
2021/06/01 20:26:03;;;;;;;0.40;0.40;;;;;;;17.59;37.38;96668.56;29396;223;63004;-66
2021/06/01 20:26:35;;;;;;;0.40;0.40;;;;;;;17.59;37.37;96668.56;29396;206;63009;-68
2021/06/01 20:27:08;;;;;;;0.40;0.40;;;;;;;17.57;37.25;96674.41;29396;210;63004;-66
2021/06/01 20:27:47;;;;;;;0.40;0.40;;;;;;;17.56;37.31;96672.00;29396;222;63008;-64
2021/06/01 20:28:38;;;;;;;0.40;0.40;;;;;;;17.60;37.41;96675.66;29396;228;63017;-62
2021/06/01 20:29:12;;;;;;;0.40;0.40;;;;;;;17.59;37.65;96671.31;29418;222;63014;-65
2021/06/01 20:29:48;;;;;;;0.40;0.40;;;;;;;17.58;37.32;96669.72;29396;213;63005;-63
2021/06/01 20:30:34;;;;;;;0.40;0.40;;;;;;;17.56;37.36;96674.72;29395;210;64009;-65
2021/06/01 20:31:17;;;;;;;0.40;0.40;;;;;;;17.55;37.38;96682.16;29396;289;63005;-63
2021/06/01 20:33:06;;;;;;;0.40;0.40;;;;;;;17.55;37.68;96675.88;29396;291;63014;-65
2021/06/01 20:33:09;;;;;;;0.40;0.40;;;;;;;17.54;37.53;96682.50;29396;212;63006;-62
2021/06/01 20:33:40;;;;;;;0.40;0.40;;;;;;;17.54;37.32;96686.06;29396;226;63009;-64
2021/06/01 20:34:15;;;;;;;0.40;0.40;;;;;;;17.54;37.41;96679.75;29396;226;63004;-65
2021/06/01 20:34:47;;;;;;;0.40;0.40;;;;;;;17.52;37.63;96682.03;29395;219;64008;-63
2021/06/01 20:35:22;;;;;;;0.40;0.40;;;;;;;17.52;37.47;96682.03;29396;196;63008;-64
2021/06/01 20:35:53;;;;;;;0.40;0.40;;;;;;;17.49;37.98;96683.53;29396;337;63009;-64
2021/06/01 20:36:25;;;;;;;0.40;0.40;;;;;;;17.48;37.78;96679.19;29396;199;63005;-65
2021/06/01 20:36:57;;;;;;;0.40;0.40;;;;;;;17.46;37.30;96681.47;29396;251;63019;-65
2021/06/01 20:37:30;;;;;;;0.40;0.40;;;;;;;17.47;37.81;96680.31;29396;205;63008;-62
2021/06/01 20:38:01;;;;;;;0.40;0.40;;;;;;;17.47;37.93;96676.78;29396;293;63009;-63
2021/06/01 20:38:33;;;;;;;0.40;0.40;;;;;;;17.44;37.80;96681.00;29396;369;63005;-65
2021/06/01 20:39:12;;;;;;;0.30;0.30;;;;;;;17.41;38.33;96682.50;29396;261;63009;-63
2021/06/01 20:39:45;;;;;;;0.40;0.40;;;;;;;17.39;37.96;96673.81;29395;377;64004;-64
2021/06/01 20:40:21;;;;;;;0.40;0.40;;;;;;;17.37;38.02;96681.56;29396;217;63009;-65
2021/06/01 20:40:55;;;;;;;0.40;0.40;;;;;;;17.36;37.98;96677.22;29397;218;63004;-64
2021/06/01 20:41:36;;;;;;;0.40;0.40;;;;;;;17.35;37.95;96678.37;29397;218;63009;-64
2021/06/01 20:42:10;;;;;;;0.40;0.40;;;;;;;17.34;38.51;96682.25;29396;256;64004;-64
2021/06/01 20:42:44;;;;;;;0.40;0.40;;;;;;;17.32;38.58;96679.06;29397;238;63008;-64
2021/06/01 20:43:16;;;;;;;0.40;0.40;;;;;;;17.32;38.36;96684.56;29397;313;63005;-64
2021/06/01 20:43:47;;;;;;;0.40;0.40;;;;;;;17.30;38.38;96675.88;29397;220;63009;-65
2021/06/01 20:44:20;;;;;;;0.40;0.40;;;;;;;17.28;38.78;96675.41;29397;231;63005;-65
2021/06/01 20:44:53;;;;;;;0.40;0.40;;;;;;;17.27;38.58;96681.25;29397;243;63009;-63
2021/06/01 20:45:28;;;;;;;0.40;0.40;;;;;;;17.24;38.55;96682.72;29397;204;63005;-64
2021/06/01 20:46:00;;;;;;;0.40;0.40;;;;;;;17.23;38.73;96678.37;29396;206;64009;-64
2021/06/01 20:46:32;;;;;;;0.40;0.40;;;;;;;17.22;38.49;96676.78;29397;212;63005;-63
2021/06/01 20:47:07;;;;;;;0.40;0.40;;;;;;;17.20;38.60;96681.78;29397;218;63009;-64
2021/06/01 20:47:43;;;;;;;0.40;0.40;;;;;;;17.20;38.61;96681.78;29397;202;63004;-64
2021/06/01 20:48:23;;;;;;;0.40;0.40;;;;;;;17.20;38.54;96676.31;29397;219;63018;-63
2021/06/01 20:48:56;;;;;;;0.40;0.40;;;;;;;17.19;38.48;96674.72;29397;228;63004;-64
2021/06/01 20:49:28;;;;;;;0.40;0.40;;;;;;;17.17;38.72;96677.00;29397;203;63009;-63
2021/06/01 20:50:00;;;;;;;0.40;0.40;;;;;;;17.17;38.84;96670.69;29397;210;63004;-62
2021/06/01 20:50:34;;;;;;;0.40;0.40;;;;;;;17.15;38.92;96676.53;29397;208;63008;-63
2021/06/01 20:51:06;;;;;;;0.40;0.40;;;;;;;17.14;38.78;96665.91;29396;203;64005;-63
2021/06/01 20:51:39;;;;;;;0.40;0.40;;;;;;;17.13;38.85;96676.06;29397;216;63005;-64
2021/06/01 20:52:10;;;;;;;0.40;0.40;;;;;;;17.12;39.16;96674.47;29397;197;63005;-63
2021/06/01 20:52:43;;;;;;;0.40;0.40;;;;;;;17.10;39.22;96676.75;29397;267;63009;-63
2021/06/01 20:53:17;;;;;;;0.40;0.40;;;;;;;17.09;39.33;96675.12;29396;364;64005;-64
2021/06/01 20:53:50;;;;;;;0.40;0.40;;;;;;;17.06;39.20;96679.34;29397;210;63009;-65
2021/06/01 20:54:24;;;;;;;0.40;0.40;;;;;;;17.07;39.16;96674.69;29397;297;63005;-63
2021/06/01 20:54:55;;;;;;;0.40;0.40;;;;;;;17.06;39.47;96671.13;29396;203;63009;-62
2021/06/01 20:55:31;;;;;;;0.40;0.40;;;;;;;17.07;39.21;96671.94;29396;285;63004;-63
2021/06/01 20:56:02;;;;;;;0.40;0.40;;;;;;;17.05;39.17;96671.47;29396;249;63009;-63
2021/06/01 20:56:34;;;;;;;0.40;0.40;;;;;;;17.05;39.14;96675.00;29395;233;64004;-64
2021/06/01 20:57:09;;;;;;;0.40;0.40;;;;;;;17.05;39.08;96671.47;29397;203;63015;-62
2021/06/01 20:57:55;;;;;;;0.40;0.40;;;;;;;17.06;39.29;96675.81;29396;279;63004;-63
2021/06/01 20:58:51;;;;;;;0.40;0.40;;;;;;;17.07;39.13;96672.72;29396;298;63015;-63
2021/06/01 20:59:25;;;;;;;0.40;0.40;;;;;;;17.06;38.99;96676.63;29396;226;63005;-68
2021/06/01 20:59:57;;;;;;;0.40;0.40;;;;;;;17.07;39.12;96678.22;29396;200;63005;-60
2021/06/01 21:00:32;;;;;;;0.40;0.40;;;;;;;17.07;38.89;96672.72;29396;234;63005;-68
2021/06/01 21:01:04;;;;;;;0.45;0.45;;;;;;;17.15;38.50;96672.97;29396;210;63009;-69
2021/06/01 21:01:36;;;;;;;0.40;0.40;;;;;;;17.15;38.73;96671.03;29395;220;64004;-69
2021/06/01 21:02:11;;;;;;;0.40;0.40;;;;;;;17.15;39.05;96679.25;29395;300;64009;-65
2021/06/01 21:02:43;;;;;;;0.40;0.40;;;;;;;17.13;38.76;96670.59;29396;212;63004;-69
2021/06/01 21:03:18;;;;;;;0.40;0.40;;;;;;;17.12;38.96;96668.97;29396;202;63009;-69
2021/06/01 21:03:51;;;;;;;0.40;0.40;;;;;;;17.12;39.01;96676.41;29396;288;63004;-66
2021/06/01 21:04:26;;;;;;;0.40;0.40;;;;;;;17.13;38.90;96678.81;29396;264;63008;-66
2021/06/01 21:05:03;;;;;;;0.40;0.40;;;;;;;17.13;38.70;96681.53;29396;316;63004;-70
2021/06/01 21:05:35;;;;;;;0.40;0.40;;;;;;;17.14;38.59;96674.94;29396;224;63008;-71
2021/06/01 21:06:09;;;;;;;0.40;0.40;;;;;;;17.14;38.76;96672.19;29396;220;63005;-68
2021/06/01 21:06:40;;;;;;;0.40;0.40;;;;;;;17.12;39.00;96673.66;29396;209;63026;-68
2021/06/01 21:07:12;;;;;;;0.40;0.40;;;;;;;17.08;38.91;96677.06;29395;202;64005;-69
2021/06/01 21:07:45;;;;;;;0.40;0.40;;;;;;;17.06;39.24;96675.81;29396;215;63020;-67
2021/06/01 21:08:17;;;;;;;0.40;0.40;;;;;;;17.06;38.97;96673.06;29396;231;63005;-67
2021/06/01 21:08:52;;;;;;;0.40;0.40;;;;;;;17.04;39.11;96678.09;29396;353;63009;-66
2021/06/01 21:09:24;;;;;;;0.40;0.40;;;;;;;17.03;39.14;96682.78;29396;227;63009;-59
2021/06/01 21:09:55;;;;;;;0.40;0.40;;;;;;;17.04;39.48;96678.09;29396;197;63009;-66
2021/06/01 21:10:28;;;;;;;0.40;0.40;;;;;;;17.03;39.37;96676.50;29395;211;64004;-68
2021/06/01 21:11:05;;;;;;;0.40;0.40;;;;;;;17.01;39.15;96671.34;29395;282;64009;-62
2021/06/01 21:11:37;;;;;;;0.40;0.40;;;;;;;16.99;40.30;96681.84;29396;260;63004;-66
2021/06/01 21:12:10;;;;;;;0.40;0.40;;;;;;;16.98;39.32;96679.47;29396;238;63008;-67
2021/06/01 21:12:41;;;;;;;0.40;0.40;;;;;;;16.96;39.68;96671.59;29396;238;63005;-66
2021/06/01 21:13:13;;;;;;;0.40;0.40;;;;;;;16.98;39.50;96669.28;29396;210;63009;-68
2021/06/01 21:13:45;;;;;;;0.40;0.40;;;;;;;16.99;39.43;96675.56;29396;224;63005;-67
2021/06/01 21:14:16;;;;;;;0.40;0.40;;;;;;;16.98;39.75;96674.00;29396;198;63009;-68
2021/06/01 21:14:48;;;;;;;0.40;0.40;;;;;;;16.96;39.75;96677.06;29396;231;63005;-65
2021/06/01 21:15:20;;;;;;;0.40;0.40;;;;;;;16.94;39.64;96673.06;29395;198;64009;-63
2021/06/01 21:15:57;;;;;;;0.40;0.40;;;;;;;16.94;39.32;96676.59;29396;224;63005;-65
2021/06/01 21:16:29;;;;;;;0.40;0.40;;;;;;;16.95;39.56;96674.66;29396;226;64009;-65
2021/06/01 21:17:01;;;;;;;0.40;0.40;;;;;;;16.92;39.36;96670.66;29396;236;63004;-63
2021/06/01 21:17:37;;;;;;;0.40;0.40;;;;;;;16.93;39.61;96676.94;29396;236;63009;-62
2021/06/01 21:18:10;;;;;;;0.50;0.50;;;;;;;16.92;39.83;96669.87;29395;231;64004;-64
2021/06/01 21:18:42;;;;;;;0.50;0.50;;;;;;;16.89;40.30;96673.28;29396;256;63027;-64
2021/06/01 21:19:15;;;;;;;0.40;0.40;;;;;;;16.87;39.94;96672.81;29396;321;63004;-65
2021/06/01 21:19:47;;;;;;;0.40;0.40;;;;;;;16.85;39.70;96677.84;29396;325;63010;-65
2021/06/01 21:20:21;;;;;;;0.40;0.40;;;;;;;16.83;39.82;96666.41;29396;299;63005;-65
2021/06/01 21:20:53;;;;;;;0.40;0.40;;;;;;;16.82;39.78;96671.09;29395;217;64009;-62
2021/06/01 21:21:24;;;;;;;0.40;0.40;;;;;;;16.83;39.85;96674.62;29395;214;64005;-63
2021/06/01 21:21:55;;;;;;;0.40;0.40;;;;;;;16.85;39.93;96669.59;29396;202;63009;-64
2021/06/01 21:22:27;;;;;;;0.50;0.50;;;;;;;16.84;40.10;96670.75;29396;273;63005;-65
2021/06/01 21:23:00;;;;;;;0.40;0.40;;;;;;;16.83;40.04;96677.37;29396;244;63017;-65
2021/06/01 21:23:32;;;;;;;0.40;0.40;;;;;;;16.83;39.95;96672.69;29396;266;63005;-62
2021/06/01 21:24:05;;;;;;;0.40;0.40;;;;;;;16.83;40.12;96672.69;29396;208;63009;-65
2021/06/01 21:24:37;;;;;;;0.40;0.40;;;;;;;16.83;39.88;96674.62;29396;210;63004;-65
2021/06/01 21:25:13;;;;;;;0.40;0.40;;;;;;;16.82;40.19;96671.09;29396;200;63009;-65
2021/06/01 21:25:45;;;;;;;0.50;0.50;;;;;;;16.81;40.19;96668.69;29396;227;63004;-63
2021/06/01 21:26:17;;;;;;;0.50;0.50;;;;;;;16.81;39.87;96668.69;29396;215;63009;-63
2021/06/01 21:26:48;;;;;;;0.40;0.40;;;;;;;16.79;40.21;96670.97;29395;215;64004;-63
2021/06/01 21:27:20;;;;;;;0.45;0.45;;;;;;;16.79;39.88;96670.97;29396;287;63008;-67
2021/06/01 21:27:57;;;;;;;0.40;0.40;;;;;;;16.79;40.43;96670.97;29396;209;63005;-66
2021/06/01 21:28:31;;;;;;;0.40;0.40;;;;;;;16.79;40.18;96679.19;29396;202;63009;-65
2021/06/01 21:29:04;;;;;;;0.50;0.50;;;;;;;16.77;40.39;96675.97;29396;224;63005;-66
2021/06/01 21:29:37;;;;;;;0.47;0.47;;;;;;;16.76;40.42;96672.44;29396;217;63009;-68
2021/06/01 21:30:11;;;;;;;0.50;0.50;;;;;;;16.78;40.11;96674.84;29396;225;63011;-65
2021/06/01 21:30:43;;;;;;;0.40;0.40;;;;;;;16.80;40.16;96673.34;29396;212;63013;-65
2021/06/01 21:31:14;;;;;;;0.40;0.40;;;;;;;16.77;39.95;96679.50;29396;196;63007;-66
2021/06/01 21:32:33;;;;;;;0.40;0.40;;;;;;;16.74;40.06;96675.50;29395;208;64009;-65
2021/06/01 21:33:08;;;;;;;0.50;0.50;;;;;;;16.71;40.24;96670.69;29396;199;63004;-67
2021/06/01 21:33:45;;;;;;;0.50;0.50;;;;;;;16.69;40.81;96675.72;29396;271;63009;-67
2021/06/01 21:34:20;;;;;;;0.50;0.50;;;;;;;16.67;40.43;96672.50;29396;212;63004;-66
2021/06/01 21:34:54;;;;;;;0.50;0.50;;;;;;;16.67;40.53;96679.94;29396;206;63008;-67
2021/06/01 21:35:27;;;;;;;0.50;0.50;;;;;;;16.64;40.43;96681.41;29396;281;63011;-64
2021/06/01 21:36:04;;;;;;;0.40;0.40;;;;;;;16.66;41.01;96679.13;29396;207;63009;-67
2021/06/01 21:36:43;;;;;;;0.50;0.50;;;;;;;16.65;40.73;96671.25;29395;262;64005;-65
2021/06/01 21:37:16;;;;;;;0.50;0.50;;;;;;;16.65;40.99;96679.47;29396;212;63009;-67
2021/06/01 21:37:50;;;;;;;0.50;0.50;;;;;;;16.64;40.73;96675.91;29396;297;63005;-66
2021/06/01 21:38:26;;;;;;;0.40;0.40;;;;;;;16.65;40.76;96683.00;29396;220;63009;-66
2021/06/01 21:38:59;;;;;;;0.50;0.50;;;;;;;16.65;40.59;96683.00;29396;223;63005;-66
2021/06/01 21:39:36;;;;;;;0.40;0.40;;;;;;;16.62;41.30;96680.94;29396;250;63009;-68
2021/06/01 21:40:09;;;;;;;0.40;0.40;;;;;;;16.58;42.91;96688.22;29396;196;63004;-67
2021/06/01 21:40:43;;;;;;;0.50;0.50;;;;;;;16.55;41.93;96683.41;29396;291;63009;-66
2021/06/01 21:41:15;;;;;;;0.50;0.50;;;;;;;16.55;41.62;96677.94;29396;207;63004;-67
2021/06/01 21:41:48;;;;;;;0.50;0.50;;;;;;;16.58;41.21;96676.47;29395;241;64009;-67
2021/06/01 21:42:21;;;;;;;0.50;0.50;;;;;;;16.59;41.27;96678.87;29396;230;63004;-67
2021/06/01 21:42:55;;;;;;;0.50;0.50;;;;;;;16.58;41.35;96677.25;29396;231;63009;-66
2021/06/01 21:43:30;;;;;;;0.50;0.50;;;;;;;16.57;41.27;96670.19;29396;280;63001;-66
2021/06/01 21:44:04;;;;;;;0.50;0.50;;;;;;;16.55;41.20;96677.94;29397;212;63009;-66
2021/06/01 21:44:40;;;;;;;0.50;0.50;;;;;;;16.51;41.47;96677.00;29397;203;63005;-66
2021/06/01 21:45:20;;;;;;;0.40;0.40;;;;;;;16.46;41.71;96685.41;29397;204;63009;-65
2021/06/01 21:45:52;;;;;;;0.50;0.50;;;;;;;16.45;41.58;96681.06;29397;210;63010;-64
2021/06/01 21:46:27;;;;;;;0.40;0.40;;;;;;;16.47;41.55;96680.75;29397;213;63015;-65
2021/06/01 21:47:03;;;;;;;0.40;0.40;;;;;;;16.46;41.51;96679.13;29395;197;64004;-64
2021/06/01 21:47:53;;;;;;;0.40;0.40;;;;;;;16.43;41.35;96680.59;29397;196;63009;-65
2021/06/01 21:48:29;;;;;;;0.50;0.50;;;;;;;16.43;41.43;96677.87;29395;206;63004;-67
2021/06/01 21:49:05;;;;;;;0.50;0.50;;;;;;;16.43;41.26;96686.09;29396;274;63009;-66
2021/06/01 21:49:40;;;;;;;0.45;0.45;;;;;;;16.43;41.15;96675.12;29395;273;63004;-66
2021/06/01 21:50:13;;;;;;;0.40;0.40;;;;;;;16.43;40.85;96680.59;29395;204;63008;-67
2021/06/01 21:50:49;;;;;;;0.40;0.40;;;;;;;16.42;40.68;96679.81;29395;219;63005;-66
2021/06/01 21:51:20;;;;;;;0.45;0.45;;;;;;;16.42;41.24;96679.00;29395;226;63015;-67
2021/06/01 21:51:54;;;;;;;0.50;0.50;;;;;;;16.43;41.31;96680.59;29395;200;63005;-66
2021/06/01 21:52:26;;;;;;;0.50;0.50;;;;;;;16.40;41.12;96679.34;29393;240;64009;-67
2021/06/01 21:53:00;;;;;;;0.40;0.40;;;;;;;16.40;40.97;96681.28;29395;243;63005;-65
2021/06/01 21:53:36;;;;;;;0.50;0.50;;;;;;;16.39;40.70;96679.66;29395;224;63009;-67
2021/06/01 21:54:10;;;;;;;0.50;0.50;;;;;;;16.38;41.15;96680.81;29395;250;63005;-66
2021/06/01 21:54:42;;;;;;;0.50;0.50;;;;;;;16.38;41.18;96678.06;29395;197;63004;-67
2021/06/01 21:55:14;;;;;;;0.40;0.40;;;;;;;16.36;41.10;96685.81;29395;184;63003;-66
2021/06/01 21:55:46;;;;;;;0.40;0.40;;;;;;;16.36;41.31;96677.59;29395;196;63009;-65
2021/06/01 21:56:19;;;;;;;0.40;0.40;;;;;;;16.36;41.14;96685.81;29395;217;63004;-66